sensor_id;sensor_type;location;lat;lon;timestamp;P1;durP1;ratioP1;P2;durP2;ratioP2
70148;SDS011;57514;52.164;5.282;2022-10-31T00:01:33;19.70;;;7.45;;
70148;SDS011;57514;52.164;5.282;2022-10-31T00:04:01;16.73;;;7.20;;
70148;SDS011;57514;52.164;5.282;2022-10-31T00:06:28;16.92;;;7.75;;
70148;SDS011;57514;52.164;5.282;2022-10-31T00:08:56;20.55;;;8.35;;
70148;SDS011;57514;52.164;5.282;2022-10-31T00:11:24;18.50;;;8.63;;
70148;SDS011;57514;52.164;5.282;2022-10-31T00:13:51;21.25;;;9.48;;
70148;SDS011;57514;52.164;5.282;2022-10-31T00:16:19;16.42;;;7.78;;
70148;SDS011;57514;52.164;5.282;2022-10-31T00:18:48;17.10;;;7.78;;
70148;SDS011;57514;52.164;5.282;2022-10-31T00:21:15;20.63;;;8.40;;
70148;SDS011;57514;52.164;5.282;2022-10-31T00:23:43;17.42;;;7.72;;
70148;SDS011;57514;52.164;5.282;2022-10-31T00:26:10;16.75;;;8.00;;
70148;SDS011;57514;52.164;5.282;2022-10-31T00:28:37;17.70;;;7.85;;
70148;SDS011;57514;52.164;5.282;2022-10-31T00:31:07;14.98;;;7.55;;
70148;SDS011;57514;52.164;5.282;2022-10-31T00:33:35;19.83;;;8.65;;
70148;SDS011;57514;52.164;5.282;2022-10-31T00:36:04;18.90;;;8.32;;
70148;SDS011;57514;52.164;5.282;2022-10-31T00:38:31;19.83;;;8.30;;
70148;SDS011;57514;52.164;5.282;2022-10-31T00:40:59;17.77;;;8.63;;
70148;SDS011;57514;52.164;5.282;2022-10-31T00:43:26;23.90;;;9.65;;
70148;SDS011;57514;52.164;5.282;2022-10-31T00:45:58;19.20;;;8.43;;
70148;SDS011;57514;52.164;5.282;2022-10-31T00:48:25;16.42;;;7.57;;
70148;SDS011;57514;52.164;5.282;2022-10-31T00:50:53;18.55;;;8.82;;
70148;SDS011;57514;52.164;5.282;2022-10-31T00:53:21;15.93;;;7.63;;
70148;SDS011;57514;52.164;5.282;2022-10-31T00:55:48;18.55;;;8.13;;
70148;SDS011;57514;52.164;5.282;2022-10-31T00:58:15;19.25;;;7.65;;
70148;SDS011;57514;52.164;5.282;2022-10-31T01:00:42;20.75;;;8.30;;
70148;SDS011;57514;52.164;5.282;2022-10-31T01:03:16;18.90;;;8.10;;
70148;SDS011;57514;52.164;5.282;2022-10-31T01:05:43;17.75;;;7.88;;
70148;SDS011;57514;52.164;5.282;2022-10-31T01:08:10;19.10;;;7.38;;
70148;SDS011;57514;52.164;5.282;2022-10-31T01:10:37;15.70;;;8.43;;
70148;SDS011;57514;52.164;5.282;2022-10-31T01:13:04;20.80;;;8.85;;
70148;SDS011;57514;52.164;5.282;2022-10-31T01:15:32;20.52;;;9.13;;
70148;SDS011;57514;52.164;5.282;2022-10-31T01:17:59;22.30;;;8.93;;
70148;SDS011;57514;52.164;5.282;2022-10-31T01:20:29;19.80;;;8.57;;
70148;SDS011;57514;52.164;5.282;2022-10-31T01:22:56;18.23;;;8.98;;
70148;SDS011;57514;52.164;5.282;2022-10-31T01:25:23;20.05;;;8.20;;
70148;SDS011;57514;52.164;5.282;2022-10-31T01:27:52;20.65;;;8.70;;
70148;SDS011;57514;52.164;5.282;2022-10-31T01:30:19;22.35;;;9.50;;
70148;SDS011;57514;52.164;5.282;2022-10-31T01:32:47;19.30;;;8.65;;
70148;SDS011;57514;52.164;5.282;2022-10-31T01:35:14;21.45;;;8.80;;
70148;SDS011;57514;52.164;5.282;2022-10-31T01:37:41;18.17;;;8.45;;
70148;SDS011;57514;52.164;5.282;2022-10-31T01:40:08;20.23;;;8.80;;
70148;SDS011;57514;52.164;5.282;2022-10-31T01:42:36;18.92;;;8.80;;
70148;SDS011;57514;52.164;5.282;2022-10-31T01:45:03;21.13;;;8.43;;
70148;SDS011;57514;52.164;5.282;2022-10-31T01:47:37;16.48;;;8.75;;
70148;SDS011;57514;52.164;5.282;2022-10-31T01:50:06;20.58;;;8.90;;
70148;SDS011;57514;52.164;5.282;2022-10-31T01:52:37;18.70;;;8.18;;
70148;SDS011;57514;52.164;5.282;2022-10-31T01:55:07;18.95;;;8.02;;
70148;SDS011;57514;52.164;5.282;2022-10-31T02:00:04;16.30;;;7.03;;
70148;SDS011;57514;52.164;5.282;2022-10-31T02:02:38;18.20;;;7.95;;
70148;SDS011;57514;52.164;5.282;2022-10-31T02:05:08;22.38;;;7.32;;
70148;SDS011;57514;52.164;5.282;2022-10-31T02:07:42;16.65;;;7.22;;
70148;SDS011;57514;52.164;5.282;2022-10-31T02:10:11;16.00;;;6.55;;
70148;SDS011;57514;52.164;5.282;2022-10-31T02:12:38;17.70;;;7.13;;
70148;SDS011;57514;52.164;5.282;2022-10-31T02:15:06;18.83;;;7.20;;
70148;SDS011;57514;52.164;5.282;2022-10-31T02:17:34;16.50;;;7.70;;
70148;SDS011;57514;52.164;5.282;2022-10-31T02:27:39;16.65;;;7.43;;
70148;SDS011;57514;52.164;5.282;2022-10-31T02:30:11;21.75;;;7.80;;
70148;SDS011;57514;52.164;5.282;2022-10-31T02:32:46;20.77;;;8.38;;
70148;SDS011;57514;52.164;5.282;2022-10-31T02:46:07;13.73;;;6.72;;
70148;SDS011;57514;52.164;5.282;2022-10-31T02:48:38;19.88;;;7.28;;
70148;SDS011;57514;52.164;5.282;2022-10-31T02:51:06;18.55;;;7.13;;
70148;SDS011;57514;52.164;5.282;2022-10-31T02:53:35;18.27;;;7.97;;
70148;SDS011;57514;52.164;5.282;2022-10-31T02:56:12;16.25;;;7.20;;
70148;SDS011;57514;52.164;5.282;2022-10-31T02:58:40;18.17;;;7.88;;
70148;SDS011;57514;52.164;5.282;2022-10-31T03:09:22;15.48;;;6.72;;
70148;SDS011;57514;52.164;5.282;2022-10-31T03:16:56;16.27;;;6.55;;
70148;SDS011;57514;52.164;5.282;2022-10-31T03:19:29;17.70;;;7.47;;
70148;SDS011;57514;52.164;5.282;2022-10-31T03:22:19;19.70;;;6.97;;
70148;SDS011;57514;52.164;5.282;2022-10-31T03:24:44;15.10;;;7.05;;
70148;SDS011;57514;52.164;5.282;2022-10-31T03:27:13;16.17;;;6.97;;
70148;SDS011;57514;52.164;5.282;2022-10-31T03:29:42;17.73;;;7.03;;
70148;SDS011;57514;52.164;5.282;2022-10-31T03:32:16;15.55;;;7.00;;
70148;SDS011;57514;52.164;5.282;2022-10-31T03:34:45;13.63;;;6.50;;
70148;SDS011;57514;52.164;5.282;2022-10-31T03:37:15;16.38;;;7.03;;
70148;SDS011;57514;52.164;5.282;2022-10-31T03:39:45;16.20;;;6.82;;
70148;SDS011;57514;52.164;5.282;2022-10-31T03:42:14;17.60;;;7.25;;
70148;SDS011;57514;52.164;5.282;2022-10-31T03:44:42;15.00;;;6.78;;
70148;SDS011;57514;52.164;5.282;2022-10-31T03:47:12;16.08;;;7.03;;
70148;SDS011;57514;52.164;5.282;2022-10-31T03:49:39;14.18;;;6.20;;
70148;SDS011;57514;52.164;5.282;2022-10-31T03:54:40;13.80;;;6.10;;
70148;SDS011;57514;52.164;5.282;2022-10-31T03:57:21;16.10;;;6.80;;
70148;SDS011;57514;52.164;5.282;2022-10-31T03:59:52;19.95;;;7.00;;
70148;SDS011;57514;52.164;5.282;2022-10-31T04:02:22;15.57;;;7.57;;
70148;SDS011;57514;52.164;5.282;2022-10-31T04:04:51;13.77;;;6.70;;
70148;SDS011;57514;52.164;5.282;2022-10-31T04:07:18;15.05;;;7.22;;
70148;SDS011;57514;52.164;5.282;2022-10-31T04:09:48;14.68;;;6.63;;
70148;SDS011;57514;52.164;5.282;2022-10-31T04:12:19;43.10;;;15.02;;
70148;SDS011;57514;52.164;5.282;2022-10-31T04:14:56;31.02;;;12.48;;
70148;SDS011;57514;52.164;5.282;2022-10-31T04:17:24;20.13;;;8.73;;
70148;SDS011;57514;52.164;5.282;2022-10-31T04:19:53;34.78;;;12.90;;
70148;SDS011;57514;52.164;5.282;2022-10-31T04:22:21;20.42;;;8.50;;
70148;SDS011;57514;52.164;5.282;2022-10-31T04:24:48;22.10;;;9.07;;
70148;SDS011;57514;52.164;5.282;2022-10-31T04:27:16;20.10;;;8.55;;
70148;SDS011;57514;52.164;5.282;2022-10-31T04:29:44;21.80;;;7.97;;
70148;SDS011;57514;52.164;5.282;2022-10-31T04:32:18;18.10;;;8.63;;
70148;SDS011;57514;52.164;5.282;2022-10-31T04:34:57;17.90;;;7.55;;
70148;SDS011;57514;52.164;5.282;2022-10-31T04:39:51;15.77;;;6.45;;
70148;SDS011;57514;52.164;5.282;2022-10-31T04:42:37;13.27;;;5.90;;
70148;SDS011;57514;52.164;5.282;2022-10-31T04:45:06;18.63;;;7.00;;
70148;SDS011;57514;52.164;5.282;2022-10-31T04:47:34;17.38;;;7.40;;
70148;SDS011;57514;52.164;5.282;2022-10-31T04:50:02;18.17;;;6.68;;
70148;SDS011;57514;52.164;5.282;2022-10-31T04:52:30;14.57;;;7.07;;
70148;SDS011;57514;52.164;5.282;2022-10-31T04:54:58;18.90;;;7.07;;
70148;SDS011;57514;52.164;5.282;2022-10-31T04:57:44;18.60;;;7.35;;
70148;SDS011;57514;52.164;5.282;2022-10-31T05:00:13;17.27;;;7.85;;
70148;SDS011;57514;52.164;5.282;2022-10-31T05:02:44;17.67;;;7.30;;
70148;SDS011;57514;52.164;5.282;2022-10-31T05:05:12;20.67;;;8.48;;
70148;SDS011;57514;52.164;5.282;2022-10-31T05:07:40;18.73;;;8.23;;
70148;SDS011;57514;52.164;5.282;2022-10-31T05:10:09;17.75;;;8.27;;
70148;SDS011;57514;52.164;5.282;2022-10-31T05:12:37;19.80;;;8.27;;
70148;SDS011;57514;52.164;5.282;2022-10-31T05:15:25;18.52;;;8.00;;
70148;SDS011;57514;52.164;5.282;2022-10-31T05:18:12;19.00;;;8.02;;
70148;SDS011;57514;52.164;5.282;2022-10-31T05:20:58;19.25;;;8.63;;
70148;SDS011;57514;52.164;5.282;2022-10-31T05:23:37;20.45;;;9.02;;
70148;SDS011;57514;52.164;5.282;2022-10-31T05:26:11;22.45;;;8.50;;
70148;SDS011;57514;52.164;5.282;2022-10-31T05:28:38;24.55;;;8.55;;
70148;SDS011;57514;52.164;5.282;2022-10-31T05:31:05;18.85;;;9.27;;
70148;SDS011;57514;52.164;5.282;2022-10-31T05:33:32;16.95;;;8.88;;
70148;SDS011;57514;52.164;5.282;2022-10-31T05:36:15;19.80;;;8.77;;
70148;SDS011;57514;52.164;5.282;2022-10-31T05:39:18;18.80;;;8.95;;
70148;SDS011;57514;52.164;5.282;2022-10-31T05:41:47;18.77;;;8.93;;
70148;SDS011;57514;52.164;5.282;2022-10-31T05:44:19;21.35;;;8.95;;
70148;SDS011;57514;52.164;5.282;2022-10-31T05:46:53;17.15;;;8.45;;
70148;SDS011;57514;52.164;5.282;2022-10-31T05:49:41;20.25;;;8.88;;
70148;SDS011;57514;52.164;5.282;2022-10-31T05:52:34;21.52;;;9.52;;
70148;SDS011;57514;52.164;5.282;2022-10-31T05:58:16;16.10;;;7.72;;
70148;SDS011;57514;52.164;5.282;2022-10-31T06:00:59;18.50;;;7.57;;
70148;SDS011;57514;52.164;5.282;2022-10-31T06:03:27;17.88;;;7.75;;
70148;SDS011;57514;52.164;5.282;2022-10-31T06:05:56;18.48;;;8.13;;
70148;SDS011;57514;52.164;5.282;2022-10-31T06:08:28;17.95;;;8.32;;
70148;SDS011;57514;52.164;5.282;2022-10-31T06:10:59;21.40;;;8.68;;
70148;SDS011;57514;52.164;5.282;2022-10-31T06:13:46;20.10;;;8.20;;
70148;SDS011;57514;52.164;5.282;2022-10-31T06:16:19;17.73;;;8.13;;
70148;SDS011;57514;52.164;5.282;2022-10-31T06:18:49;19.83;;;9.20;;
70148;SDS011;57514;52.164;5.282;2022-10-31T06:21:17;20.08;;;8.32;;
70148;SDS011;57514;52.164;5.282;2022-10-31T06:23:47;18.70;;;8.45;;
70148;SDS011;57514;52.164;5.282;2022-10-31T06:26:31;17.85;;;8.05;;
70148;SDS011;57514;52.164;5.282;2022-10-31T06:28:58;20.63;;;8.80;;
70148;SDS011;57514;52.164;5.282;2022-10-31T06:31:58;19.65;;;9.07;;
70148;SDS011;57514;52.164;5.282;2022-10-31T06:34:28;19.45;;;11.02;;
70148;SDS011;57514;52.164;5.282;2022-10-31T06:36:56;19.17;;;10.73;;
70148;SDS011;57514;52.164;5.282;2022-10-31T06:39:24;20.48;;;8.40;;
70148;SDS011;57514;52.164;5.282;2022-10-31T06:41:53;19.02;;;7.82;;
70148;SDS011;57514;52.164;5.282;2022-10-31T06:44:23;18.17;;;7.40;;
70148;SDS011;57514;52.164;5.282;2022-10-31T06:47:00;16.13;;;7.90;;
70148;SDS011;57514;52.164;5.282;2022-10-31T06:50:04;19.27;;;7.63;;
70148;SDS011;57514;52.164;5.282;2022-10-31T06:52:33;20.15;;;8.38;;
70148;SDS011;57514;52.164;5.282;2022-10-31T06:55:01;16.75;;;7.68;;
70148;SDS011;57514;52.164;5.282;2022-10-31T06:57:32;20.25;;;8.95;;
70148;SDS011;57514;52.164;5.282;2022-10-31T07:00:06;20.15;;;7.93;;
70148;SDS011;57514;52.164;5.282;2022-10-31T07:02:53;18.27;;;8.35;;
70148;SDS011;57514;52.164;5.282;2022-10-31T07:05:22;21.77;;;8.95;;
70148;SDS011;57514;52.164;5.282;2022-10-31T07:07:56;20.20;;;8.77;;
70148;SDS011;57514;52.164;5.282;2022-10-31T07:10:24;23.98;;;9.45;;
70148;SDS011;57514;52.164;5.282;2022-10-31T07:12:58;17.85;;;8.23;;
70148;SDS011;57514;52.164;5.282;2022-10-31T07:15:29;18.35;;;8.75;;
70148;SDS011;57514;52.164;5.282;2022-10-31T07:18:03;18.92;;;8.45;;
70148;SDS011;57514;52.164;5.282;2022-10-31T07:20:46;17.35;;;8.38;;
70148;SDS011;57514;52.164;5.282;2022-10-31T07:23:13;19.27;;;8.85;;
70148;SDS011;57514;52.164;5.282;2022-10-31T07:25:45;18.52;;;8.15;;
70148;SDS011;57514;52.164;5.282;2022-10-31T07:28:17;17.23;;;8.80;;
70148;SDS011;57514;52.164;5.282;2022-10-31T07:30:52;19.10;;;8.93;;
70148;SDS011;57514;52.164;5.282;2022-10-31T07:33:20;17.98;;;8.68;;
70148;SDS011;57514;52.164;5.282;2022-10-31T07:36:20;21.02;;;9.18;;
70148;SDS011;57514;52.164;5.282;2022-10-31T07:38:49;18.77;;;8.73;;
70148;SDS011;57514;52.164;5.282;2022-10-31T07:41:17;19.10;;;9.15;;
70148;SDS011;57514;52.164;5.282;2022-10-31T07:43:45;17.75;;;8.98;;
70148;SDS011;57514;52.164;5.282;2022-10-31T07:46:15;19.17;;;9.45;;
70148;SDS011;57514;52.164;5.282;2022-10-31T07:49:01;20.27;;;9.48;;
70148;SDS011;57514;52.164;5.282;2022-10-31T07:51:47;21.38;;;9.50;;
70148;SDS011;57514;52.164;5.282;2022-10-31T07:54:26;21.70;;;9.73;;
70148;SDS011;57514;52.164;5.282;2022-10-31T07:56:53;22.80;;;9.40;;
70148;SDS011;57514;52.164;5.282;2022-10-31T07:59:21;17.98;;;8.98;;
70148;SDS011;57514;52.164;5.282;2022-10-31T08:01:51;17.63;;;9.27;;
70148;SDS011;57514;52.164;5.282;2022-10-31T08:04:34;19.98;;;9.52;;
70148;SDS011;57514;52.164;5.282;2022-10-31T08:07:35;18.77;;;10.40;;
70148;SDS011;57514;52.164;5.282;2022-10-31T08:10:12;19.70;;;9.85;;
70148;SDS011;57514;52.164;5.282;2022-10-31T08:12:39;18.85;;;10.25;;
70148;SDS011;57514;52.164;5.282;2022-10-31T08:15:16;18.83;;;10.35;;
70148;SDS011;57514;52.164;5.282;2022-10-31T08:17:45;17.35;;;8.93;;
70148;SDS011;57514;52.164;5.282;2022-10-31T08:20:13;19.38;;;9.77;;
70148;SDS011;57514;52.164;5.282;2022-10-31T08:22:54;18.73;;;9.07;;
70148;SDS011;57514;52.164;5.282;2022-10-31T08:25:22;19.08;;;10.05;;
70148;SDS011;57514;52.164;5.282;2022-10-31T08:27:50;16.08;;;8.60;;
70148;SDS011;57514;52.164;5.282;2022-10-31T08:30:19;18.05;;;9.63;;
70148;SDS011;57514;52.164;5.282;2022-10-31T08:33:11;20.58;;;10.55;;
70148;SDS011;57514;52.164;5.282;2022-10-31T08:35:58;20.52;;;10.15;;
70148;SDS011;57514;52.164;5.282;2022-10-31T08:38:45;20.45;;;11.05;;
70148;SDS011;57514;52.164;5.282;2022-10-31T08:41:13;25.10;;;12.05;;
70148;SDS011;57514;52.164;5.282;2022-10-31T08:43:40;26.52;;;12.57;;
70148;SDS011;57514;52.164;5.282;2022-10-31T08:46:07;25.63;;;13.45;;
70148;SDS011;57514;52.164;5.282;2022-10-31T08:48:35;27.80;;;13.80;;
70148;SDS011;57514;52.164;5.282;2022-10-31T08:51:03;27.10;;;14.65;;
70148;SDS011;57514;52.164;5.282;2022-10-31T08:53:31;30.67;;;14.40;;
70148;SDS011;57514;52.164;5.282;2022-10-31T08:56:33;27.48;;;13.82;;
70148;SDS011;57514;52.164;5.282;2022-10-31T08:59:04;26.77;;;13.63;;
70148;SDS011;57514;52.164;5.282;2022-10-31T09:02:04;27.33;;;14.57;;
70148;SDS011;57514;52.164;5.282;2022-10-31T09:04:32;28.27;;;14.48;;
70148;SDS011;57514;52.164;5.282;2022-10-31T09:07:07;28.48;;;13.90;;
70148;SDS011;57514;52.164;5.282;2022-10-31T09:09:46;30.50;;;15.27;;
70148;SDS011;57514;52.164;5.282;2022-10-31T09:12:13;28.88;;;13.93;;
70148;SDS011;57514;52.164;5.282;2022-10-31T09:14:59;29.35;;;14.90;;
70148;SDS011;57514;52.164;5.282;2022-10-31T09:17:34;28.25;;;14.07;;
70148;SDS011;57514;52.164;5.282;2022-10-31T09:20:15;30.30;;;13.63;;
70148;SDS011;57514;52.164;5.282;2022-10-31T09:22:44;26.65;;;13.68;;
70148;SDS011;57514;52.164;5.282;2022-10-31T09:25:12;28.30;;;13.75;;
70148;SDS011;57514;52.164;5.282;2022-10-31T09:27:43;28.45;;;13.32;;
70148;SDS011;57514;52.164;5.282;2022-10-31T09:30:12;27.85;;;12.88;;
70148;SDS011;57514;52.164;5.282;2022-10-31T09:32:48;24.75;;;12.73;;
70148;SDS011;57514;52.164;5.282;2022-10-31T09:35:15;25.25;;;12.70;;
70148;SDS011;57514;52.164;5.282;2022-10-31T09:37:53;25.48;;;12.45;;
70148;SDS011;57514;52.164;5.282;2022-10-31T09:40:31;27.77;;;12.65;;
70148;SDS011;57514;52.164;5.282;2022-10-31T09:46:01;22.33;;;11.27;;
70148;SDS011;57514;52.164;5.282;2022-10-31T09:51:58;22.08;;;11.85;;
70148;SDS011;57514;52.164;5.282;2022-10-31T09:54:51;22.30;;;11.40;;
70148;SDS011;57514;52.164;5.282;2022-10-31T09:57:39;21.85;;;11.60;;
70148;SDS011;57514;52.164;5.282;2022-10-31T10:00:10;21.27;;;10.82;;
70148;SDS011;57514;52.164;5.282;2022-10-31T10:02:46;23.13;;;11.30;;
70148;SDS011;57514;52.164;5.282;2022-10-31T10:05:21;23.02;;;11.07;;
70148;SDS011;57514;52.164;5.282;2022-10-31T10:08:01;19.55;;;10.75;;
70148;SDS011;57514;52.164;5.282;2022-10-31T10:13:57;21.15;;;10.43;;
70148;SDS011;57514;52.164;5.282;2022-10-31T10:16:56;21.42;;;11.40;;
70148;SDS011;57514;52.164;5.282;2022-10-31T10:19:50;21.92;;;10.93;;
70148;SDS011;57514;52.164;5.282;2022-10-31T10:22:39;23.23;;;10.70;;
70148;SDS011;57514;52.164;5.282;2022-10-31T10:25:21;23.38;;;11.15;;
70148;SDS011;57514;52.164;5.282;2022-10-31T10:27:57;19.52;;;10.30;;
70148;SDS011;57514;52.164;5.282;2022-10-31T10:30:35;21.60;;;11.00;;
70148;SDS011;57514;52.164;5.282;2022-10-31T10:33:14;23.02;;;12.13;;
70148;SDS011;57514;52.164;5.282;2022-10-31T10:41:02;21.20;;;10.88;;
70148;SDS011;57514;52.164;5.282;2022-10-31T10:43:32;22.17;;;11.05;;
70148;SDS011;57514;52.164;5.282;2022-10-31T10:46:15;24.63;;;11.40;;
70148;SDS011;57514;52.164;5.282;2022-10-31T11:00:30;20.88;;;11.02;;
70148;SDS011;57514;52.164;5.282;2022-10-31T11:03:00;22.50;;;11.93;;
70148;SDS011;57514;52.164;5.282;2022-10-31T11:05:35;20.50;;;11.73;;
70148;SDS011;57514;52.164;5.282;2022-10-31T11:08:04;23.27;;;11.65;;
70148;SDS011;57514;52.164;5.282;2022-10-31T11:10:31;19.33;;;10.82;;
70148;SDS011;57514;52.164;5.282;2022-10-31T11:13:03;23.52;;;11.07;;
70148;SDS011;57514;52.164;5.282;2022-10-31T11:15:54;21.58;;;10.77;;
70148;SDS011;57514;52.164;5.282;2022-10-31T11:18:29;20.38;;;11.88;;
70148;SDS011;57514;52.164;5.282;2022-10-31T11:20:58;22.08;;;11.13;;
70148;SDS011;57514;52.164;5.282;2022-10-31T11:23:27;22.77;;;11.32;;
70148;SDS011;57514;52.164;5.282;2022-10-31T11:25:59;20.42;;;10.52;;
70148;SDS011;57514;52.164;5.282;2022-10-31T11:28:30;22.52;;;11.13;;
70148;SDS011;57514;52.164;5.282;2022-10-31T11:38:49;22.63;;;10.68;;
70148;SDS011;57514;52.164;5.282;2022-10-31T11:48:28;23.70;;;10.55;;
70148;SDS011;57514;52.164;5.282;2022-10-31T11:50:58;24.27;;;10.73;;
70148;SDS011;57514;52.164;5.282;2022-10-31T11:56:00;26.38;;;12.07;;
70148;SDS011;57514;52.164;5.282;2022-10-31T11:58:28;26.45;;;12.23;;
70148;SDS011;57514;52.164;5.282;2022-10-31T12:01:01;27.83;;;12.63;;
70148;SDS011;57514;52.164;5.282;2022-10-31T12:06:49;26.38;;;13.30;;
70148;SDS011;57514;52.164;5.282;2022-10-31T12:09:33;25.63;;;12.80;;
70148;SDS011;57514;52.164;5.282;2022-10-31T12:17:45;29.63;;;13.45;;
70148;SDS011;57514;52.164;5.282;2022-10-31T12:20:23;32.10;;;13.30;;
70148;SDS011;57514;52.164;5.282;2022-10-31T12:23:06;34.42;;;14.23;;
70148;SDS011;57514;52.164;5.282;2022-10-31T12:29:16;32.03;;;14.70;;
70148;SDS011;57514;52.164;5.282;2022-10-31T12:34:52;34.08;;;13.93;;
70148;SDS011;57514;52.164;5.282;2022-10-31T12:37:28;31.98;;;13.65;;
70148;SDS011;57514;52.164;5.282;2022-10-31T12:45:28;37.92;;;15.43;;
70148;SDS011;57514;52.164;5.282;2022-10-31T12:53:30;37.85;;;15.77;;
70148;SDS011;57514;52.164;5.282;2022-10-31T13:02:00;36.08;;;15.38;;
70148;SDS011;57514;52.164;5.282;2022-10-31T13:07:48;36.90;;;14.75;;
70148;SDS011;57514;52.164;5.282;2022-10-31T13:13:39;32.85;;;14.90;;
70148;SDS011;57514;52.164;5.282;2022-10-31T13:16:47;34.20;;;14.85;;
70148;SDS011;57514;52.164;5.282;2022-10-31T13:19:31;34.63;;;14.57;;
70148;SDS011;57514;52.164;5.282;2022-10-31T13:22:07;32.95;;;14.70;;
70148;SDS011;57514;52.164;5.282;2022-10-31T13:32:22;34.63;;;15.23;;
70148;SDS011;57514;52.164;5.282;2022-10-31T13:34:51;35.17;;;14.63;;
70148;SDS011;57514;52.164;5.282;2022-10-31T13:39:59;36.58;;;15.27;;
70148;SDS011;57514;52.164;5.282;2022-10-31T13:42:37;29.77;;;14.55;;
70148;SDS011;57514;52.164;5.282;2022-10-31T13:45:20;33.90;;;14.15;;
70148;SDS011;57514;52.164;5.282;2022-10-31T13:47:55;30.98;;;14.93;;
70148;SDS011;57514;52.164;5.282;2022-10-31T13:50:29;36.33;;;15.18;;
70148;SDS011;57514;52.164;5.282;2022-10-31T13:55:44;29.45;;;14.32;;
70148;SDS011;57514;52.164;5.282;2022-10-31T13:58:32;33.42;;;13.45;;
70148;SDS011;57514;52.164;5.282;2022-10-31T14:03:26;34.28;;;15.18;;
70148;SDS011;57514;52.164;5.282;2022-10-31T14:06:14;32.80;;;14.43;;
70148;SDS011;57514;52.164;5.282;2022-10-31T14:08:47;38.63;;;14.73;;
70148;SDS011;57514;52.164;5.282;2022-10-31T14:11:21;31.73;;;13.70;;
70148;SDS011;57514;52.164;5.282;2022-10-31T14:13:51;35.58;;;14.32;;
70148;SDS011;57514;52.164;5.282;2022-10-31T14:16:20;33.80;;;14.65;;
70148;SDS011;57514;52.164;5.282;2022-10-31T14:18:51;30.48;;;14.93;;
70148;SDS011;57514;52.164;5.282;2022-10-31T14:23:51;31.27;;;13.93;;
70148;SDS011;57514;52.164;5.282;2022-10-31T14:29:03;32.55;;;15.10;;
70148;SDS011;57514;52.164;5.282;2022-10-31T14:31:45;33.88;;;14.85;;
70148;SDS011;57514;52.164;5.282;2022-10-31T14:36:50;37.72;;;15.35;;
70148;SDS011;57514;52.164;5.282;2022-10-31T14:39:44;37.22;;;14.65;;
70148;SDS011;57514;52.164;5.282;2022-10-31T14:52:56;35.42;;;14.65;;
70148;SDS011;57514;52.164;5.282;2022-10-31T14:55:24;40.08;;;16.50;;
70148;SDS011;57514;52.164;5.282;2022-10-31T14:57:56;36.72;;;16.80;;
70148;SDS011;57514;52.164;5.282;2022-10-31T15:00:24;38.08;;;15.23;;
70148;SDS011;57514;52.164;5.282;2022-10-31T15:05:28;40.13;;;17.45;;
70148;SDS011;57514;52.164;5.282;2022-10-31T15:07:57;42.22;;;17.75;;
70148;SDS011;57514;52.164;5.282;2022-10-31T15:10:26;39.00;;;16.80;;
70148;SDS011;57514;52.164;5.282;2022-10-31T15:12:56;42.65;;;18.13;;
70148;SDS011;57514;52.164;5.282;2022-10-31T15:15:25;38.45;;;16.85;;
70148;SDS011;57514;52.164;5.282;2022-10-31T15:17:54;40.88;;;16.92;;
70148;SDS011;57514;52.164;5.282;2022-10-31T15:20:23;47.17;;;16.98;;
70148;SDS011;57514;52.164;5.282;2022-10-31T15:22:57;37.58;;;16.42;;
70148;SDS011;57514;52.164;5.282;2022-10-31T15:25:33;37.03;;;16.45;;
70148;SDS011;57514;52.164;5.282;2022-10-31T15:28:01;40.25;;;17.58;;
70148;SDS011;57514;52.164;5.282;2022-10-31T15:30:29;38.60;;;17.25;;
70148;SDS011;57514;52.164;5.282;2022-10-31T15:32:56;46.13;;;17.35;;
70148;SDS011;57514;52.164;5.282;2022-10-31T15:35:25;38.42;;;16.92;;
70148;SDS011;57514;52.164;5.282;2022-10-31T15:37:56;41.67;;;18.67;;
70148;SDS011;57514;52.164;5.282;2022-10-31T15:40:25;38.50;;;16.85;;
70148;SDS011;57514;52.164;5.282;2022-10-31T15:45:21;38.55;;;16.13;;
70148;SDS011;57514;52.164;5.282;2022-10-31T15:47:54;41.25;;;17.30;;
70148;SDS011;57514;52.164;5.282;2022-10-31T15:50:27;37.45;;;15.43;;
70148;SDS011;57514;52.164;5.282;2022-10-31T15:52:57;40.75;;;17.33;;
70148;SDS011;57514;52.164;5.282;2022-10-31T15:55:27;42.00;;;17.15;;
70148;SDS011;57514;52.164;5.282;2022-10-31T15:57:57;36.22;;;16.42;;
70148;SDS011;57514;52.164;5.282;2022-10-31T16:00:27;42.15;;;17.00;;
70148;SDS011;57514;52.164;5.282;2022-10-31T16:10:50;32.75;;;14.00;;
70148;SDS011;57514;52.164;5.282;2022-10-31T16:13:25;34.17;;;15.45;;
70148;SDS011;57514;52.164;5.282;2022-10-31T16:15:55;35.33;;;15.57;;
70148;SDS011;57514;52.164;5.282;2022-10-31T16:18:43;36.75;;;16.90;;
70148;SDS011;57514;52.164;5.282;2022-10-31T16:21:12;42.85;;;16.10;;
70148;SDS011;57514;52.164;5.282;2022-10-31T16:23:46;38.38;;;15.82;;
70148;SDS011;57514;52.164;5.282;2022-10-31T16:26:23;36.50;;;16.20;;
70148;SDS011;57514;52.164;5.282;2022-10-31T16:28:51;38.13;;;16.48;;
70148;SDS011;57514;52.164;5.282;2022-10-31T16:31:39;37.38;;;16.50;;
70148;SDS011;57514;52.164;5.282;2022-10-31T16:34:14;36.08;;;17.27;;
70148;SDS011;57514;52.164;5.282;2022-10-31T16:36:49;38.65;;;16.58;;
70148;SDS011;57514;52.164;5.282;2022-10-31T16:39:16;36.80;;;16.17;;
70148;SDS011;57514;52.164;5.282;2022-10-31T16:41:48;31.75;;;14.82;;
70148;SDS011;57514;52.164;5.282;2022-10-31T16:44:19;38.20;;;15.82;;
70148;SDS011;57514;52.164;5.282;2022-10-31T16:46:57;34.83;;;14.55;;
70148;SDS011;57514;52.164;5.282;2022-10-31T16:49:40;38.75;;;15.85;;
70148;SDS011;57514;52.164;5.282;2022-10-31T16:52:08;37.97;;;16.52;;
70148;SDS011;57514;52.164;5.282;2022-10-31T16:54:35;35.50;;;16.02;;
70148;SDS011;57514;52.164;5.282;2022-10-31T16:57:03;38.20;;;14.75;;
70148;SDS011;57514;52.164;5.282;2022-10-31T16:59:31;40.88;;;16.15;;
70148;SDS011;57514;52.164;5.282;2022-10-31T17:02:02;35.47;;;15.93;;
70148;SDS011;57514;52.164;5.282;2022-10-31T17:04:30;34.72;;;15.73;;
70148;SDS011;57514;52.164;5.282;2022-10-31T17:06:57;34.63;;;15.20;;
70148;SDS011;57514;52.164;5.282;2022-10-31T17:09:25;38.47;;;16.00;;
70148;SDS011;57514;52.164;5.282;2022-10-31T17:11:53;36.63;;;16.48;;
70148;SDS011;57514;52.164;5.282;2022-10-31T17:14:20;36.03;;;16.40;;
70148;SDS011;57514;52.164;5.282;2022-10-31T17:16:47;40.55;;;16.73;;
70148;SDS011;57514;52.164;5.282;2022-10-31T17:19:15;34.67;;;16.00;;
70148;SDS011;57514;52.164;5.282;2022-10-31T17:21:42;41.10;;;17.00;;
70148;SDS011;57514;52.164;5.282;2022-10-31T17:24:13;37.08;;;16.98;;
70148;SDS011;57514;52.164;5.282;2022-10-31T17:26:40;36.90;;;15.93;;
70148;SDS011;57514;52.164;5.282;2022-10-31T17:29:07;40.63;;;17.05;;
70148;SDS011;57514;52.164;5.282;2022-10-31T17:31:34;36.45;;;17.58;;
70148;SDS011;57514;52.164;5.282;2022-10-31T17:34:04;36.80;;;15.85;;
70148;SDS011;57514;52.164;5.282;2022-10-31T17:36:32;35.15;;;16.00;;
70148;SDS011;57514;52.164;5.282;2022-10-31T17:38:59;39.60;;;16.83;;
70148;SDS011;57514;52.164;5.282;2022-10-31T17:41:26;36.90;;;16.30;;
70148;SDS011;57514;52.164;5.282;2022-10-31T17:43:55;37.10;;;16.40;;
70148;SDS011;57514;52.164;5.282;2022-10-31T17:46:22;35.60;;;16.65;;
70148;SDS011;57514;52.164;5.282;2022-10-31T17:48:49;40.58;;;16.30;;
70148;SDS011;57514;52.164;5.282;2022-10-31T17:51:19;38.83;;;17.20;;
70148;SDS011;57514;52.164;5.282;2022-10-31T17:53:46;37.25;;;16.27;;